CheckWX is a tool to help pilots better visualize weather data.  It is not intended as a substitute for an official pre-flight weather briefing.

10:39:38 UTC

VTSE METAR
Chumphon Airport
Thailand
Current

40 mins ago

VTSE 171000Z 24008KT 9999 -DZ OVC020 27/24 Q1007 NOSIG
Observed
Sep-17 @ 10:00 UTC
Wind
  • 240° at 8 KTS
Visibility
10,000+ meters
Flight Rules
MVFR
Conditions
Light Drizzle
Cloud Levels
  • Overcast at 2,000' AGL
Temperature
27°C / 81°F
Dewpoint
24°C / 75°F
Heat Index
31°C / 87°F
Humidity
84%
Altimeter
29.73" Hg
Pressure
1006.92 hPa
Previous

2 hours ago

VTSE 170900Z 25009KT 220V290 9999 -DZ OVC020 27/24 Q1007 NOSIG
Observed
Sep-17 @ 09:00 UTC
Wind
  • 250° at 9 KTS
Visibility
10,000+ meters
Flight Rules
MVFR
Conditions
Light Drizzle
Cloud Levels
  • Overcast at 2,000' AGL
Temperature
27°C / 81°F
Dewpoint
24°C / 75°F
Heat Index
31°C / 87°F
Humidity
84%
Altimeter
29.73" Hg
Pressure
1006.92 hPa
Previous

3 hours ago

VTSE 170800Z 25008KT 220V290 9999 OVC020 27/25 Q1007 NOSIG
Observed
Sep-17 @ 08:00 UTC
Wind
  • 250° at 8 KTS
Visibility
10,000+ meters
Flight Rules
MVFR
Cloud Levels
  • Overcast at 2,000' AGL
Temperature
27°C / 81°F
Dewpoint
25°C / 77°F
Heat Index
31°C / 88°F
Humidity
89%
Altimeter
29.73" Hg
Pressure
1006.92 hPa